Time;durP1;ratioP1;P1;durP2;ratioP2;P2;SDS_P1;SDS_P2;PMS_P1;PMS_P2;Temp;Humidity;BMP_temperature;BMP_pressure;BME280_temperature;BME280_humidity;BME280_pressure;Samples;Min_cycle;Max_cycle;Signal;HPM_P1;HPM_P2
2023/09/08 00:01:44;;;;;;;6.57;5.90;;;17.70;80.10;;;;;;4997814;28;20509;-63
2023/09/08 00:04:09;;;;;;;7.03;6.32;;;17.70;80.40;;;;;;4995074;28;20137;-64
2023/09/08 00:06:35;;;;;;;7.25;5.70;;;17.60;80.50;;;;;;4997114;28;20034;-63
2023/09/08 00:09:03;;;;;;;7.18;6.20;;;17.60;80.60;;;;;;4997368;28;20034;-63
2023/09/08 00:11:28;;;;;;;6.93;6.22;;;17.50;81.00;;;;;;4998407;28;20046;-63
2023/09/08 00:13:54;;;;;;;7.07;6.38;;;17.50;81.00;;;;;;4998518;28;20109;-63
2023/09/08 00:16:19;;;;;;;8.32;6.13;;;17.50;81.20;;;;;;4998122;28;20084;-62
2023/09/08 00:18:45;;;;;;;7.75;6.35;;;17.50;81.30;;;;;;4997706;28;20038;-63
2023/09/08 00:21:10;;;;;;;7.57;6.78;;;17.50;81.40;;;;;;4996974;28;20509;-63
2023/09/08 00:23:37;;;;;;;6.32;5.72;;;17.50;81.40;;;;;;4997394;28;20030;-64
2023/09/08 00:26:03;;;;;;;7.20;6.15;;;17.40;81.20;;;;;;4997774;28;21504;-63
2023/09/08 00:28:28;;;;;;;7.45;5.78;;;17.50;81.20;;;;;;4995257;28;20502;-63
2023/09/08 00:30:54;;;;;;;6.60;6.00;;;17.50;81.30;;;;;;4995723;28;20042;-64
2023/09/08 00:33:22;;;;;;;6.45;5.82;;;17.50;81.20;;;;;;4999144;28;20030;-64
2023/09/08 00:35:51;;;;;;;6.90;5.75;;;17.50;81.20;;;;;;4995810;28;20128;-64
2023/09/08 00:38:17;;;;;;;6.93;6.00;;;17.50;81.20;;;;;;4997630;28;20033;-63
2023/09/08 00:40:42;;;;;;;6.53;5.93;;;17.50;81.00;;;;;;4995951;28;20059;-63
2023/09/08 00:43:08;;;;;;;6.68;6.07;;;17.50;81.00;;;;;;4996986;28;20468;-64
2023/09/08 00:45:40;;;;;;;7.35;6.55;;;17.50;81.00;;;;;;4997434;28;20038;-63
2023/09/08 00:48:06;;;;;;;7.38;6.68;;;17.30;81.10;;;;;;4997878;28;20034;-64
2023/09/08 00:50:31;;;;;;;6.82;6.13;;;17.30;81.20;;;;;;4996229;28;20328;-63
2023/09/08 00:52:57;;;;;;;7.00;6.30;;;17.30;81.50;;;;;;4995717;28;20092;-63
2023/09/08 00:55:23;;;;;;;6.72;5.88;;;17.20;81.60;;;;;;4995277;28;20069;-63
2023/09/08 00:57:48;;;;;;;7.07;6.30;;;17.20;81.80;;;;;;4997022;28;20030;-63
2023/09/08 01:00:15;;;;;;;7.00;6.40;;;17.20;81.90;;;;;;4995751;28;20037;-64
2023/09/08 01:02:40;;;;;;;6.53;5.90;;;17.20;82.00;;;;;;4997393;28;20034;-63
2023/09/08 01:05:06;;;;;;;8.98;6.10;;;17.10;82.00;;;;;;4994843;28;20030;-64
2023/09/08 01:07:32;;;;;;;6.95;6.00;;;17.10;82.20;;;;;;4996754;28;20497;-62
2023/09/08 01:10:03;;;;;;;7.57;6.78;;;17.10;82.20;;;;;;4995396;28;20128;-63
2023/09/08 01:12:29;;;;;;;7.40;6.68;;;17.00;82.40;;;;;;4990631;28;20042;-63
2023/09/08 01:14:55;;;;;;;7.35;6.65;;;17.00;82.40;;;;;;4996374;28;20038;-63
2023/09/08 01:17:20;;;;;;;9.45;6.60;;;17.00;82.40;;;;;;4995228;28;20038;-63
2023/09/08 01:19:48;;;;;;;8.55;6.68;;;16.90;82.50;;;;;;4995617;28;20037;-63
2023/09/08 01:22:33;;;;;;;7.63;6.75;;;16.90;82.70;;;;;;4996250;28;20034;-63
2023/09/08 01:25:20;;;;;;;6.82;6.13;;;16.90;83.30;;;;;;4995486;28;20029;-63
2023/09/08 01:27:57;;;;;;;8.98;6.38;;;16.80;83.60;;;;;;4995498;28;20104;-62
2023/09/08 01:30:25;;;;;;;7.95;6.38;;;16.80;83.40;;;;;;4993866;28;20046;-63
2023/09/08 01:32:51;;;;;;;6.72;6.10;;;16.80;82.90;;;;;;4993911;28;20037;-63
2023/09/08 01:35:17;;;;;;;9.52;6.90;;;16.80;82.90;;;;;;4994309;28;20037;-64
2023/09/08 01:37:47;;;;;;;6.88;6.07;;;16.80;83.00;;;;;;4996333;28;20039;-64
2023/09/08 01:40:13;;;;;;;7.35;6.65;;;16.80;83.30;;;;;;4994154;28;20030;-62
2023/09/08 01:42:40;;;;;;;9.13;6.13;;;16.80;83.10;;;;;;4995170;28;20062;-63
2023/09/08 01:45:06;;;;;;;8.43;6.35;;;16.70;83.10;;;;;;4993729;28;20026;-64
2023/09/08 01:47:32;;;;;;;6.93;6.22;;;16.50;83.10;;;;;;4996075;28;20161;-63
2023/09/08 01:49:58;;;;;;;8.57;6.80;;;16.60;83.30;;;;;;4995169;28;20477;-63
2023/09/08 01:52:24;;;;;;;7.72;6.35;;;16.60;83.50;;;;;;4994200;28;20041;-64
2023/09/08 01:54:50;;;;;;;7.60;6.40;;;16.60;83.70;;;;;;4994495;28;20437;-63
2023/09/08 01:57:15;;;;;;;7.18;6.47;;;16.60;83.80;;;;;;4995271;28;20160;-63
2023/09/08 01:59:41;;;;;;;9.35;6.70;;;16.50;83.80;;;;;;4994814;28;20489;-63
2023/09/08 02:02:06;;;;;;;7.00;6.30;;;16.50;84.00;;;;;;4997824;28;20034;-63
2023/09/08 02:04:32;;;;;;;7.60;6.63;;;16.60;84.00;;;;;;4995619;28;20037;-64
2023/09/08 02:06:58;;;;;;;7.82;6.50;;;16.50;84.10;;;;;;4994611;28;20038;-63
2023/09/08 02:09:37;;;;;;;7.25;6.55;;;16.50;84.00;;;;;;4997144;28;20042;-64
2023/09/08 02:12:03;;;;;;;8.93;6.50;;;16.50;84.30;;;;;;4993755;28;20070;-63
2023/09/08 02:14:29;;;;;;;6.85;6.25;;;16.50;84.00;;;;;;4994687;28;20035;-64
2023/09/08 02:16:55;;;;;;;8.32;7.10;;;16.50;84.00;;;;;;4996819;28;20099;-64
2023/09/08 02:19:21;;;;;;;8.73;7.18;;;16.40;84.10;;;;;;4994632;28;20053;-63
2023/09/08 02:21:47;;;;;;;7.85;7.05;;;16.40;84.30;;;;;;4995394;28;20398;-63
2023/09/08 02:24:13;;;;;;;8.00;7.18;;;16.40;84.60;;;;;;4995797;28;20054;-63
2023/09/08 02:26:39;;;;;;;8.73;7.50;;;16.40;84.60;;;;;;4995956;28;20034;-63
2023/09/08 02:29:04;;;;;;;9.00;6.60;;;16.40;84.70;;;;;;4994809;28;20066;-62
2023/09/08 02:31:30;;;;;;;7.95;6.60;;;16.30;84.60;;;;;;4993202;28;20105;-64
2023/09/08 02:33:56;;;;;;;7.30;6.60;;;16.30;84.60;;;;;;4993796;28;20039;-63
2023/09/08 02:36:25;;;;;;;7.00;6.30;;;16.30;84.80;;;;;;4994306;28;20273;-63
2023/09/08 02:38:54;;;;;;;7.53;6.30;;;16.30;84.70;;;;;;4993212;28;20037;-63
2023/09/08 02:41:20;;;;;;;7.22;6.50;;;16.40;84.80;;;;;;4993468;28;20408;-64
2023/09/08 02:43:46;;;;;;;9.88;6.68;;;16.40;84.50;;;;;;4994342;28;20046;-63
2023/09/08 02:46:12;;;;;;;7.18;6.45;;;16.40;84.50;;;;;;4994412;28;20382;-63
2023/09/08 02:48:38;;;;;;;7.50;6.43;;;16.40;84.30;;;;;;4990512;28;20045;-63
2023/09/08 02:51:04;;;;;;;7.18;6.43;;;16.30;84.10;;;;;;4995540;28;20041;-63
2023/09/08 02:53:30;;;;;;;7.60;6.80;;;16.40;84.10;;;;;;4994177;28;20041;-63
2023/09/08 02:55:56;;;;;;;7.97;7.00;;;16.40;84.10;;;;;;4999110;28;20026;-63
2023/09/08 02:58:22;;;;;;;8.77;6.90;;;16.40;84.20;;;;;;4997829;28;20523;-63
2023/09/08 03:00:47;;;;;;;7.18;6.47;;;16.30;84.10;;;;;;4997724;28;20037;-63
2023/09/08 03:03:13;;;;;;;11.25;7.20;;;16.30;84.10;;;;;;4997519;28;20034;-63
2023/09/08 03:05:39;;;;;;;10.40;7.70;;;16.30;84.10;;;;;;4998336;28;20175;-63
2023/09/08 03:08:05;;;;;;;9.18;6.70;;;16.30;84.10;;;;;;4999201;28;20397;-63
2023/09/08 03:10:33;;;;;;;7.80;6.97;;;16.20;84.10;;;;;;4996224;28;20428;-63
2023/09/08 03:13:02;;;;;;;7.88;6.65;;;16.20;84.30;;;;;;4993817;28;20029;-63
2023/09/08 03:15:28;;;;;;;7.93;6.68;;;16.20;84.40;;;;;;4997641;28;20031;-63
2023/09/08 03:17:55;;;;;;;8.07;6.68;;;16.20;84.60;;;;;;4997113;28;20217;-63
2023/09/08 03:20:20;;;;;;;9.30;6.80;;;16.20;84.60;;;;;;4997636;28;20464;-62
2023/09/08 03:22:46;;;;;;;9.35;6.85;;;16.20;84.60;;;;;;4996267;28;20049;-63
2023/09/08 03:25:14;;;;;;;8.70;6.90;;;16.30;84.50;;;;;;4998120;28;20031;-63
2023/09/08 03:27:40;;;;;;;12.57;6.97;;;16.30;84.40;;;;;;4998005;28;20501;-63
2023/09/08 03:30:06;;;;;;;8.40;7.13;;;16.20;84.10;;;;;;4995717;28;20041;-63
2023/09/08 03:32:32;;;;;;;7.85;6.93;;;16.20;84.10;;;;;;4997619;28;20092;-63
2023/09/08 03:34:57;;;;;;;9.25;7.43;;;16.20;84.10;;;;;;4997800;28;20046;-63
2023/09/08 03:37:23;;;;;;;8.63;7.32;;;16.20;84.10;;;;;;4998264;28;20038;-64
2023/09/08 03:39:49;;;;;;;7.72;7.03;;;16.10;84.10;;;;;;4996587;28;20344;-64
2023/09/08 03:42:14;;;;;;;8.27;7.10;;;16.10;84.30;;;;;;4998431;28;20038;-63
2023/09/08 03:44:40;;;;;;;8.07;7.35;;;16.10;84.50;;;;;;4996272;28;20041;-63
2023/09/08 03:47:06;;;;;;;9.10;7.70;;;16.00;84.50;;;;;;4996509;28;20026;-62
2023/09/08 03:49:32;;;;;;;8.88;7.97;;;16.00;84.60;;;;;;4994280;28;20029;-64
2023/09/08 03:51:58;;;;;;;8.88;7.63;;;16.00;84.80;;;;;;4996614;28;20512;-63
2023/09/08 03:54:24;;;;;;;9.95;7.57;;;15.90;84.90;;;;;;4997221;28;20033;-63
2023/09/08 03:56:49;;;;;;;8.68;7.53;;;15.90;85.00;;;;;;4999272;28;20493;-64
2023/09/08 03:59:15;;;;;;;9.23;7.80;;;15.90;85.00;;;;;;4997843;28;20034;-63
2023/09/08 04:01:40;;;;;;;8.80;7.68;;;15.90;85.20;;;;;;4997402;28;20442;-63
2023/09/08 04:04:06;;;;;;;9.75;7.78;;;15.80;85.10;;;;;;4997193;28;20092;-62
2023/09/08 04:06:31;;;;;;;13.15;8.10;;;15.80;85.00;;;;;;4998696;28;20158;-63
2023/09/08 04:08:57;;;;;;;10.38;7.55;;;15.80;85.00;;;;;;4994649;28;20121;-63
2023/09/08 04:11:23;;;;;;;8.40;7.47;;;15.80;85.10;;;;;;4995639;28;20042;-63
2023/09/08 04:13:48;;;;;;;8.50;7.60;;;15.80;85.10;;;;;;4995025;28;20034;-63
2023/09/08 04:16:14;;;;;;;10.65;7.95;;;15.70;85.20;;;;;;4995294;28;20034;-64
2023/09/08 04:18:39;;;;;;;10.57;7.65;;;15.70;85.20;;;;;;4994452;28;20619;-63
2023/09/08 04:21:07;;;;;;;9.45;7.90;;;15.70;85.30;;;;;;4995235;28;20077;-64
2023/09/08 04:23:33;;;;;;;8.55;7.65;;;15.70;85.40;;;;;;4993910;28;20038;-63
2023/09/08 04:25:58;;;;;;;8.75;7.20;;;15.60;85.40;;;;;;4997771;28;20026;-63
2023/09/08 04:28:24;;;;;;;8.18;7.32;;;15.60;85.50;;;;;;4993378;28;20034;-64
2023/09/08 04:30:49;;;;;;;8.85;7.95;;;15.60;85.50;;;;;;4986373;28;20049;-62
2023/09/08 04:33:15;;;;;;;9.23;7.72;;;15.60;85.60;;;;;;4993996;28;20058;-63
2023/09/08 04:35:41;;;;;;;8.35;7.55;;;15.50;85.70;;;;;;4991500;28;20172;-63
2023/09/08 04:38:06;;;;;;;8.98;7.72;;;15.50;86.70;;;;;;4993957;28;20041;-63
2023/09/08 04:40:32;;;;;;;12.02;8.23;;;15.50;86.10;;;;;;4993426;28;20340;-63
2023/09/08 04:42:58;;;;;;;11.48;8.80;;;15.50;86.20;;;;;;4988463;28;20041;-62
2023/09/08 04:45:23;;;;;;;8.70;7.80;;;15.40;86.20;;;;;;4995188;28;20042;-63
2023/09/08 04:47:49;;;;;;;9.05;8.13;;;15.40;86.20;;;;;;4991243;28;20031;-62
2023/09/08 04:50:15;;;;;;;8.75;7.68;;;15.40;86.20;;;;;;4992456;28;20037;-62
2023/09/08 04:52:40;;;;;;;8.88;7.97;;;15.40;86.10;;;;;;4992423;28;20033;-63
2023/09/08 04:55:07;;;;;;;12.20;7.72;;;15.40;87.00;;;;;;4993686;28;20033;-63
2023/09/08 04:57:32;;;;;;;11.95;7.95;;;15.40;86.30;;;;;;4996095;28;20116;-63
2023/09/08 04:59:58;;;;;;;8.05;6.85;;;15.50;86.40;;;;;;4995679;28;20038;-62
2023/09/08 05:02:23;;;;;;;9.50;7.55;;;15.50;86.20;;;;;;4996915;28;20048;-63
2023/09/08 05:04:49;;;;;;;8.40;7.47;;;15.50;86.10;;;;;;4995663;28;20814;-63
2023/09/08 05:07:15;;;;;;;8.93;7.30;;;15.50;85.90;;;;;;4996145;28;20077;-63
2023/09/08 05:09:40;;;;;;;8.70;7.78;;;15.50;85.90;;;;;;4995230;28;21830;-63
2023/09/08 05:12:06;;;;;;;10.43;7.82;;;15.60;85.90;;;;;;4992391;28;20149;-62
2023/09/08 05:14:32;;;;;;;8.70;7.53;;;15.60;85.70;;;;;;4994459;28;20034;-63
2023/09/08 05:16:58;;;;;;;11.35;7.68;;;15.60;85.50;;;;;;4994155;28;20034;-61
2023/09/08 05:19:23;;;;;;;9.38;8.35;;;15.60;86.00;;;;;;4994696;28;20112;-63
2023/09/08 05:21:51;;;;;;;10.60;8.00;;;15.70;86.20;;;;;;4993853;28;20050;-63
2023/09/08 05:24:17;;;;;;;10.68;9.20;;;15.70;85.40;;;;;;4992449;28;20496;-63
2023/09/08 05:26:42;;;;;;;9.98;8.98;;;15.60;85.30;;;;;;4996152;28;20568;-62
2023/09/08 05:29:08;;;;;;;9.45;8.35;;;15.60;85.50;;;;;;4994370;28;20045;-62
2023/09/08 05:31:34;;;;;;;11.52;8.50;;;15.60;85.60;;;;;;4994824;28;20490;-62
2023/09/08 05:33:59;;;;;;;10.60;8.70;;;15.60;85.70;;;;;;4993938;28;20034;-63
2023/09/08 05:36:25;;;;;;;13.38;8.90;;;15.60;85.90;;;;;;4993596;28;20044;-60
2023/09/08 05:38:50;;;;;;;13.68;8.50;;;15.60;86.20;;;;;;4995721;28;20113;-63
2023/09/08 05:41:16;;;;;;;11.60;8.15;;;15.50;86.20;;;;;;4994239;28;20072;-63
2023/09/08 05:43:42;;;;;;;15.63;8.68;;;15.50;86.40;;;;;;4993320;28;20049;-62
2023/09/08 05:46:07;;;;;;;14.52;8.38;;;15.50;86.70;;;;;;4995307;28;20046;-62
2023/09/08 05:48:33;;;;;;;18.23;8.70;;;15.50;86.90;;;;;;4995161;28;20035;-63
2023/09/08 05:50:58;;;;;;;15.20;8.32;;;15.50;87.10;;;;;;4995248;28;20045;-62
2023/09/08 05:53:24;;;;;;;17.35;8.82;;;15.60;87.40;;;;;;4995723;28;20037;-62
2023/09/08 05:55:50;;;;;;;12.70;8.70;;;15.60;87.40;;;;;;4994637;28;20647;-63
2023/09/08 05:58:15;;;;;;;10.52;8.68;;;15.70;87.50;;;;;;4995365;28;20041;-63
2023/09/08 06:00:41;;;;;;;14.38;8.70;;;15.80;87.60;;;;;;4994501;28;20052;-63
2023/09/08 06:03:06;;;;;;;15.27;8.32;;;15.80;87.40;;;;;;4993621;28;20035;-63
2023/09/08 06:05:32;;;;;;;12.32;8.77;;;15.90;87.40;;;;;;4995903;28;20397;-61
2023/09/08 06:07:57;;;;;;;15.55;8.73;;;16.00;87.30;;;;;;4995145;28;20041;-62
2023/09/08 06:10:23;;;;;;;12.70;8.35;;;16.00;87.10;;;;;;4994196;28;20529;-63
2023/09/08 06:12:50;;;;;;;13.30;9.50;;;16.10;87.20;;;;;;4990197;28;20041;-62
2023/09/08 06:15:17;;;;;;;10.45;9.10;;;16.10;87.20;;;;;;4993935;28;22179;-62
2023/09/08 06:17:42;;;;;;;10.50;9.10;;;16.20;87.20;;;;;;4992961;28;20053;-63
2023/09/08 06:20:08;;;;;;;13.30;9.35;;;16.20;87.30;;;;;;4992416;28;20038;-63
2023/09/08 06:22:34;;;;;;;12.38;9.32;;;16.30;87.40;;;;;;4994274;28;20065;-63
2023/09/08 06:25:00;;;;;;;14.63;9.73;;;16.30;87.50;;;;;;4993351;28;20187;-63
2023/09/08 06:27:25;;;;;;;12.40;9.65;;;16.40;87.70;;;;;;4993823;28;20034;-62
2023/09/08 06:29:51;;;;;;;11.57;9.45;;;16.50;87.80;;;;;;4994359;28;20037;-63
2023/09/08 06:32:16;;;;;;;17.00;10.52;;;16.50;87.80;;;;;;4989525;28;20033;-63
2023/09/08 06:34:43;;;;;;;12.27;10.60;;;16.60;88.10;;;;;;4989759;28;20058;-63
2023/09/08 06:37:08;;;;;;;12.35;10.52;;;16.70;88.10;;;;;;4992298;28;20581;-63
2023/09/08 06:39:34;;;;;;;13.32;11.82;;;16.70;88.00;;;;;;4994083;28;20034;-63
2023/09/08 06:41:59;;;;;;;12.00;10.45;;;16.80;88.10;;;;;;4992284;28;20041;-64
2023/09/08 06:44:25;;;;;;;12.38;11.18;;;16.90;88.00;;;;;;4991869;28;20593;-61
2023/09/08 06:46:51;;;;;;;14.43;11.50;;;17.00;88.10;;;;;;4995198;28;20073;-62
2023/09/08 06:49:17;;;;;;;14.45;11.57;;;17.00;88.00;;;;;;4994237;28;20045;-62
2023/09/08 06:51:43;;;;;;;13.50;9.80;;;17.10;88.00;;;;;;4992542;28;20046;-63
2023/09/08 06:54:08;;;;;;;19.13;12.18;;;17.20;88.00;;;;;;4989412;28;20081;-63
2023/09/08 06:56:36;;;;;;;14.98;12.98;;;17.20;87.90;;;;;;4991020;28;20575;-63
2023/09/08 06:59:02;;;;;;;15.75;12.73;;;17.30;87.90;;;;;;4993741;28;20044;-63
2023/09/08 07:01:28;;;;;;;16.02;13.98;;;17.40;88.50;;;;;;4993602;28;20041;-63
2023/09/08 07:03:53;;;;;;;15.52;13.50;;;17.50;87.60;;;;;;4993165;28;20037;-62
2023/09/08 07:06:22;;;;;;;15.63;12.95;;;17.50;87.40;;;;;;4988638;28;20030;-63
2023/09/08 07:08:50;;;;;;;17.85;12.88;;;17.60;87.30;;;;;;4993080;28;20034;-63
2023/09/08 07:11:15;;;;;;;14.88;13.20;;;17.60;87.10;;;;;;4992840;28;20041;-63
2023/09/08 07:13:41;;;;;;;17.05;15.18;;;17.70;87.10;;;;;;4992646;28;20385;-62
2023/09/08 07:16:07;;;;;;;17.67;15.13;;;17.70;87.10;;;;;;4992439;28;20049;-63
2023/09/08 07:18:35;;;;;;;16.45;13.98;;;17.80;87.20;;;;;;4991377;28;20113;-62
2023/09/08 07:21:02;;;;;;;15.63;13.65;;;17.80;87.20;;;;;;4991118;28;20041;-63
2023/09/08 07:23:27;;;;;;;15.13;11.95;;;17.90;87.00;;;;;;4993099;28;20045;-63
2023/09/08 07:25:53;;;;;;;14.77;12.70;;;18.00;86.60;;;;;;4994316;28;20444;-63
2023/09/08 07:28:18;;;;;;;17.75;13.52;;;18.10;86.50;;;;;;4994126;28;20733;-63
2023/09/08 07:30:44;;;;;;;14.75;11.90;;;18.10;86.20;;;;;;4993545;28;20034;-64
2023/09/08 07:33:10;;;;;;;16.15;12.45;;;18.20;86.10;;;;;;4994990;28;20069;-63
2023/09/08 07:35:39;;;;;;;13.35;12.00;;;18.30;86.00;;;;;;4993667;28;20277;-63
2023/09/08 07:38:05;;;;;;;15.10;11.43;;;18.30;85.90;;;;;;4991728;28;20037;-63
2023/09/08 07:40:35;;;;;;;13.95;11.32;;;18.40;85.80;;;;;;4996137;28;20026;-64
2023/09/08 07:43:01;;;;;;;14.32;11.35;;;18.50;85.70;;;;;;4997769;28;20038;-63
2023/09/08 07:45:26;;;;;;;13.05;11.68;;;18.60;85.60;;;;;;4998231;28;20034;-63
2023/09/08 07:47:52;;;;;;;13.38;12.02;;;18.70;85.40;;;;;;4998382;28;20056;-63
2023/09/08 07:50:22;;;;;;;14.80;12.43;;;18.70;85.20;;;;;;4997905;28;20044;-63
2023/09/08 07:52:49;;;;;;;13.63;12.13;;;18.80;85.10;;;;;;4997754;28;20100;-62
2023/09/08 07:55:15;;;;;;;15.65;12.45;;;18.90;85.10;;;;;;4997771;28;20038;-62
2023/09/08 07:57:43;;;;;;;12.75;11.45;;;19.00;85.00;;;;;;4996431;28;20069;-63
2023/09/08 08:00:12;;;;;;;14.93;11.68;;;19.00;85.00;;;;;;4997339;28;20395;-64
2023/09/08 08:03:06;;;;;;;13.23;11.85;;;19.10;84.80;;;;;;4995538;28;20046;-63
2023/09/08 08:05:31;;;;;;;13.30;11.75;;;19.20;84.60;;;;;;4997504;28;20133;-63
2023/09/08 08:08:00;;;;;;;13.07;11.73;;;19.30;84.30;;;;;;5000764;28;20113;-62
2023/09/08 08:10:26;;;;;;;13.43;11.77;;;19.40;84.10;;;;;;4995308;28;20236;-63
2023/09/08 08:12:51;;;;;;;13.63;12.00;;;19.40;83.90;;;;;;4995826;28;20041;-63
2023/09/08 08:15:20;;;;;;;13.20;11.80;;;19.50;83.70;;;;;;4998284;28;20038;-63
2023/09/08 08:17:46;;;;;;;15.20;11.65;;;19.60;83.70;;;;;;4998794;28;20057;-63
2023/09/08 08:20:17;;;;;;;15.70;12.63;;;19.60;83.40;;;;;;4997452;28;20537;-63
2023/09/08 08:22:45;;;;;;;13.30;11.90;;;19.70;83.10;;;;;;4997544;28;20038;-63
2023/09/08 08:25:12;;;;;;;12.57;11.27;;;19.70;83.00;;;;;;4999862;28;20061;-64
2023/09/08 08:27:39;;;;;;;13.90;12.45;;;19.80;83.10;;;;;;4997613;28;20046;-63
2023/09/08 08:30:05;;;;;;;13.95;12.50;;;19.90;83.00;;;;;;4997148;28;20114;-63
2023/09/08 08:32:31;;;;;;;13.85;12.20;;;20.00;82.80;;;;;;4992874;28;20041;-64
2023/09/08 08:34:56;;;;;;;12.85;11.45;;;20.00;82.70;;;;;;4997863;28;20603;-64
2023/09/08 08:37:22;;;;;;;14.98;11.70;;;20.10;82.60;;;;;;4997972;28;20034;-63
2023/09/08 08:39:48;;;;;;;14.65;12.45;;;20.20;82.60;;;;;;4998051;28;20030;-63
2023/09/08 08:42:14;;;;;;;14.50;11.55;;;20.20;82.40;;;;;;4999137;28;20044;-63
2023/09/08 08:44:40;;;;;;;13.70;11.15;;;20.30;82.60;;;;;;4996597;28;20149;-64
2023/09/08 08:47:10;;;;;;;11.88;10.68;;;20.40;82.60;;;;;;4997682;28;20036;-63
2023/09/08 08:49:38;;;;;;;11.70;10.50;;;20.50;82.50;;;;;;4996699;28;20056;-63
2023/09/08 08:52:07;;;;;;;12.82;11.52;;;20.50;82.50;;;;;;4997466;28;20069;-62
2023/09/08 08:54:38;;;;;;;12.77;11.10;;;20.60;82.20;;;;;;4998628;28;20037;-63
2023/09/08 08:57:04;;;;;;;14.00;12.05;;;20.80;81.90;;;;;;4997256;28;20493;-63
2023/09/08 08:59:31;;;;;;;12.70;11.38;;;20.90;81.90;;;;;;4997422;28;20121;-63
2023/09/08 09:01:58;;;;;;;13.10;11.75;;;20.90;81.60;;;;;;4998495;28;20042;-63
2023/09/08 09:04:25;;;;;;;12.63;11.07;;;21.00;81.40;;;;;;4995536;28;20056;-63
2023/09/08 09:06:50;;;;;;;11.93;10.70;;;21.10;81.70;;;;;;4997324;28;20041;-64
2023/09/08 09:09:16;;;;;;;11.60;10.05;;;21.20;81.80;;;;;;4994584;28;20027;-63
2023/09/08 09:11:42;;;;;;;13.07;10.90;;;21.30;82.00;;;;;;4995323;28;20046;-63
2023/09/08 09:14:08;;;;;;;11.45;10.35;;;21.40;82.30;;;;;;4995279;28;20631;-64
2023/09/08 09:16:41;;;;;;;11.52;10.02;;;21.50;82.10;;;;;;4994150;28;20533;-63
2023/09/08 09:19:07;;;;;;;14.05;11.48;;;21.70;81.70;;;;;;4995247;28;20375;-63
2023/09/08 09:21:47;;;;;;;11.30;10.13;;;21.80;81.50;;;;;;4996583;28;20067;-63
2023/09/08 09:24:17;;;;;;;12.07;10.57;;;21.90;80.80;;;;;;4995853;28;20033;-63
2023/09/08 09:26:43;;;;;;;12.20;9.75;;;22.00;80.30;;;;;;4993967;28;20398;-63
2023/09/08 09:29:13;;;;;;;13.07;9.52;;;22.20;80.30;;;;;;4999818;28;20129;-63
2023/09/08 09:31:57;;;;;;;11.15;9.98;;;22.20;80.40;;;;;;4995277;28;20414;-63
2023/09/08 09:34:23;;;;;;;10.15;9.07;;;22.40;80.40;;;;;;4994838;28;20536;-63
2023/09/08 09:36:49;;;;;;;10.23;8.90;;;22.40;80.40;;;;;;4994189;28;20038;-63
2023/09/08 09:39:20;;;;;;;13.60;10.05;;;22.60;80.30;;;;;;4998195;28;20038;-63
2023/09/08 09:41:47;;;;;;;11.02;9.82;;;22.70;79.70;;;;;;4996028;28;20038;-63
2023/09/08 09:44:13;;;;;;;10.80;9.73;;;22.80;79.60;;;;;;4998141;28;20505;-63
2023/09/08 09:46:39;;;;;;;10.27;9.20;;;22.90;79.30;;;;;;4998519;28;20062;-62
2023/09/08 09:49:05;;;;;;;10.30;9.20;;;23.00;79.00;;;;;;4999334;28;20038;-63
2023/09/08 09:51:30;;;;;;;11.20;8.77;;;23.10;78.20;;;;;;4998798;28;20535;-63
2023/09/08 09:53:58;;;;;;;13.13;8.43;;;23.20;77.90;;;;;;4992415;28;20533;-64
2023/09/08 09:56:24;;;;;;;10.48;7.70;;;23.30;77.70;;;;;;4996823;28;20037;-63
2023/09/08 09:58:53;;;;;;;12.00;7.57;;;23.40;77.70;;;;;;4995230;28;20457;-64
2023/09/08 10:01:19;;;;;;;12.88;8.85;;;23.60;77.50;;;;;;4994134;28;20576;-63
2023/09/08 10:03:45;;;;;;;10.18;8.20;;;23.60;76.80;;;;;;4995373;28;20075;-63
2023/09/08 10:06:12;;;;;;;10.82;7.68;;;23.80;76.50;;;;;;4996628;28;20528;-63
2023/09/08 10:08:38;;;;;;;12.82;8.20;;;23.80;76.20;;;;;;4994619;28;20043;-63
2023/09/08 10:11:07;;;;;;;13.07;8.35;;;24.00;75.70;;;;;;4994268;28;20042;-63
2023/09/08 10:13:42;;;;;;;10.95;8.73;;;24.00;75.40;;;;;;4996934;28;20041;-63
2023/09/08 10:16:10;;;;;;;10.63;8.15;;;24.10;75.30;;;;;;4996923;28;20030;-63
2023/09/08 10:18:37;;;;;;;11.10;7.85;;;24.20;75.40;;;;;;4996495;28;20034;-64
2023/09/08 10:21:05;;;;;;;9.80;8.00;;;24.30;75.60;;;;;;4996216;28;20516;-63
2023/09/08 10:23:40;;;;;;;13.40;8.68;;;24.40;74.70;;;;;;4997087;28;20049;-65
2023/09/08 10:26:10;;;;;;;9.48;8.48;;;24.40;74.00;;;;;;4997003;28;20098;-64
2023/09/08 10:28:37;;;;;;;9.73;8.38;;;24.50;74.10;;;;;;4996255;28;20042;-63
2023/09/08 10:31:03;;;;;;;8.60;7.65;;;24.60;74.20;;;;;;4996195;28;20679;-63
2023/09/08 10:33:30;;;;;;;8.55;7.65;;;24.70;74.20;;;;;;4994012;28;20413;-64
2023/09/08 10:35:57;;;;;;;11.40;8.27;;;24.70;75.20;;;;;;4993995;28;20128;-63
2023/09/08 10:38:26;;;;;;;10.38;7.03;;;24.80;74.20;;;;;;4992880;28;20466;-63
2023/09/08 10:41:14;;;;;;;8.88;7.55;;;24.80;74.10;;;;;;4992776;28;20538;-64
2023/09/08 10:43:40;;;;;;;9.75;7.47;;;24.90;73.80;;;;;;4992095;28;20034;-64
2023/09/08 10:46:09;;;;;;;8.70;7.82;;;25.00;74.30;;;;;;4995504;28;20108;-64
2023/09/08 10:48:44;;;;;;;10.10;8.00;;;25.10;73.20;;;;;;4996008;28;20042;-64
2023/09/08 10:51:21;;;;;;;9.27;7.30;;;25.10;72.70;;;;;;4996590;28;20081;-64
2023/09/08 10:53:48;;;;;;;9.32;7.70;;;25.20;73.10;;;;;;4993915;28;20038;-63
2023/09/08 10:56:13;;;;;;;8.52;7.00;;;25.40;73.60;;;;;;4993865;28;20030;-63
2023/09/08 10:58:42;;;;;;;8.40;7.53;;;25.30;73.40;;;;;;4994186;28;20057;-64
2023/09/08 11:01:27;;;;;;;7.53;6.82;;;25.40;73.60;;;;;;4995031;28;20046;-63
2023/09/08 11:03:53;;;;;;;11.10;6.28;;;25.50;72.50;;;;;;4994674;28;20038;-63
2023/09/08 11:06:30;;;;;;;9.02;6.88;;;25.60;73.50;;;;;;4995129;28;20528;-63
2023/09/08 11:08:56;;;;;;;7.85;6.03;;;25.70;73.60;;;;;;4995014;28;20543;-63
2023/09/08 11:11:21;;;;;;;9.38;5.95;;;25.80;73.20;;;;;;4992067;28;20042;-64
2023/09/08 11:13:47;;;;;;;8.55;6.53;;;25.90;73.00;;;;;;4995795;28;20076;-63
2023/09/08 11:16:21;;;;;;;8.80;6.22;;;26.00;72.70;;;;;;4999234;28;20125;-64
2023/09/08 11:18:46;;;;;;;11.70;6.53;;;26.10;73.00;;;;;;4998746;28;20117;-63
2023/09/08 11:21:12;;;;;;;7.55;5.70;;;26.20;72.80;;;;;;4998064;28;20180;-63
2023/09/08 11:23:39;;;;;;;7.28;6.15;;;26.30;72.60;;;;;;4999754;28;20063;-63
2023/09/08 11:26:06;;;;;;;8.70;6.28;;;26.30;72.20;;;;;;4998390;28;20127;-63
2023/09/08 11:28:32;;;;;;;6.72;5.63;;;26.40;72.00;;;;;;4998809;28;20034;-64
2023/09/08 11:30:57;;;;;;;7.72;5.82;;;26.50;71.10;;;;;;4999101;28;20049;-63
2023/09/08 11:33:24;;;;;;;9.75;6.30;;;26.60;71.30;;;;;;4998206;28;20038;-64
2023/09/08 11:35:52;;;;;;;7.43;5.65;;;26.70;70.40;;;;;;4996134;28;20132;-63
2023/09/08 11:38:19;;;;;;;6.13;5.47;;;26.80;70.40;;;;;;4997713;28;20030;-63
2023/09/08 11:40:45;;;;;;;9.52;5.40;;;26.80;70.40;;;;;;4997372;28;20402;-63
2023/09/08 11:43:11;;;;;;;8.45;6.10;;;26.90;70.10;;;;;;4997287;28;20092;-63
2023/09/08 11:45:37;;;;;;;6.07;5.40;;;26.90;70.30;;;;;;4998013;28;20041;-63
2023/09/08 11:48:06;;;;;;;8.70;5.65;;;27.00;70.10;;;;;;4998164;28;20038;-63
2023/09/08 11:50:32;;;;;;;8.25;5.63;;;27.00;69.80;;;;;;4995397;28;20034;-64
2023/09/08 11:52:59;;;;;;;9.80;5.03;;;27.10;70.00;;;;;;4996896;28;20552;-63
2023/09/08 11:55:25;;;;;;;6.10;5.47;;;27.20;70.00;;;;;;4997448;28;20042;-64
2023/09/08 11:58:00;;;;;;;9.75;5.30;;;27.30;69.30;;;;;;4996970;28;20405;-64
2023/09/08 12:00:27;;;;;;;7.18;5.35;;;27.40;69.20;;;;;;4997633;28;20517;-62
2023/09/08 12:02:53;;;;;;;6.13;5.60;;;27.40;69.00;;;;;;4998236;28;20038;-62
2023/09/08 12:05:23;;;;;;;6.65;5.50;;;27.50;69.00;;;;;;4996980;28;20042;-64
2023/09/08 12:07:56;;;;;;;5.57;4.75;;;27.50;67.50;;;;;;4995424;28;20037;-63
2023/09/08 12:10:22;;;;;;;5.50;4.95;;;27.60;67.50;;;;;;4995804;28;20501;-62
2023/09/08 12:13:00;;;;;;;12.35;5.20;;;27.70;68.20;;;;;;4992830;28;20502;-63
2023/09/08 12:15:36;;;;;;;8.32;5.55;;;27.70;66.90;;;;;;4995177;28;20080;-62
2023/09/08 12:18:06;;;;;;;5.75;4.50;;;27.80;66.90;;;;;;4997400;28;20042;-63
2023/09/08 12:20:32;;;;;;;5.00;4.60;;;27.80;66.50;;;;;;4996711;28;20037;-64
2023/09/08 12:23:03;;;;;;;6.68;4.38;;;27.90;66.10;;;;;;4997869;28;20137;-63
2023/09/08 12:25:33;;;;;;;5.18;4.30;;;27.90;65.20;;;;;;4996818;28;20133;-62
2023/09/08 12:27:59;;;;;;;4.97;4.53;;;27.90;64.60;;;;;;4998774;28;20030;-64
2023/09/08 12:30:29;;;;;;;6.90;4.63;;;28.00;65.10;;;;;;4997310;28;20044;-64
2023/09/08 12:32:57;;;;;;;6.13;4.53;;;28.00;64.70;;;;;;4997830;28;20611;-63
2023/09/08 12:35:22;;;;;;;4.75;4.28;;;28.00;64.60;;;;;;4998216;28;20053;-64
2023/09/08 12:38:00;;;;;;;9.05;4.38;;;28.10;65.20;;;;;;4998337;28;20054;-63
2023/09/08 12:40:27;;;;;;;7.45;5.03;;;28.10;64.40;;;;;;4997302;28;20124;-64